Hutchinson Municipal Airport
KHUT : now visible

Airfield :











YOU CAN JOIN US ON...

 
LOGIN :

Register | Disclaimer

   EN    FR    IT 

 









Legend :    VFR   Marginal VFR   IFR   Intensive IFR   Very Intensive IFR
Visi :
Ceiling :
>= 8 km
>= 3000ft
5 to 8 km
1000 to 3000 ft
1500m to 5 km
500 to 1000 ft
800 to 1500m
200 to 500 ft
< 800m
< 200 ft
Symbols :   Thunderstorms  Fog  Heavy snow  Heavy precipitations  Wind > 20 kt






- Airport Elevation : 1543 ft


KHUT - Hutchinson Municipal

CURRENT METAR :
  • 010152Z 17007KT 10SM CLR 12/06 A2996 RMK AO2 SLP139 T01170061

EXPIRED METARs :
  • 010052Z 19009KT 10SM CLR 16/06 A2996 RMK AO2 SLP136 T01560061
  • 312352Z 19013KT 10SM CLR 18/06 A2996 RMK AO2 SLP138 T01830056 10200 20167 56008

TAF KHUT
Valid from the 01 at 00:00 until the 02 at 00:00 UTC


312339Z 0100/0124 20009KT P6SM SKC
FM010200 18007KT P6SM SKC
FM011500 18015G23KT P6SM FEW250
FM011900 18022G30KT P6SM BKN200



MET'MAP, your aeronautical weather chart ! - Copyright ORBIFLY December 2007 - Disclaimer

ORBIFLY MET'MAP TEAM :

Programming & Development : Alexandra Zaïnal
Concept & original design : Baudouin d'Aumeries
Assistance for programming : Marc-Olivier Méhu
Technical & hardware support : Manuel Goepfert

Contact : metmap@orbifly.com




SOURCES & CREDITS :

   NOAA       Earth
Advisory